createdAt,value
2023-03-26T00:00:20.763Z,95478.00
2023-03-26T00:01:19.694Z,95478.00
2023-03-26T00:02:20.683Z,95484.00
2023-03-26T00:03:20.659Z,95484.00
2023-03-26T00:04:20.640Z,95488.00
2023-03-26T00:05:20.685Z,95488.00
2023-03-26T00:06:20.625Z,95484.00
2023-03-26T00:07:19.620Z,95482.00
2023-03-26T00:08:20.608Z,95480.00
2023-03-26T00:09:20.612Z,95480.00
2023-03-26T00:10:20.608Z,95478.00
2023-03-26T00:11:19.588Z,95478.00
2023-03-26T00:12:20.581Z,95484.00
2023-03-26T00:13:20.587Z,95486.00
2023-03-26T00:14:20.573Z,95482.00
2023-03-26T00:15:20.605Z,95480.00
2023-03-26T00:16:20.593Z,95478.00
2023-03-26T00:17:20.578Z,95476.00
2023-03-26T00:18:20.546Z,95472.00
2023-03-26T00:19:20.531Z,95468.00
2023-03-26T00:20:20.553Z,95464.00
2023-03-26T00:21:19.536Z,95461.00
2023-03-26T00:22:20.515Z,95457.00
2023-03-26T00:23:19.508Z,95457.00
2023-03-26T00:24:20.506Z,95457.00
2023-03-26T00:25:20.521Z,95455.00
2023-03-26T00:26:20.507Z,95453.00
2023-03-26T00:27:20.486Z,95449.00
2023-03-26T00:28:20.492Z,95443.00
2023-03-26T00:29:20.479Z,95435.00
2023-03-26T00:30:20.471Z,95437.00
2023-03-26T00:31:19.512Z,95435.00
2023-03-26T00:32:20.459Z,95433.00
2023-03-26T00:33:20.462Z,95429.00
2023-03-26T00:34:20.440Z,95427.00
2023-03-26T00:35:20.473Z,95423.00
2023-03-26T00:36:20.436Z,95421.00
2023-03-26T00:37:20.427Z,95425.00
2023-03-26T00:38:20.417Z,95429.00
2023-03-26T00:39:20.415Z,95431.00
2023-03-26T00:40:20.435Z,95433.00
2023-03-26T00:41:20.388Z,95433.00
2023-03-26T00:42:20.379Z,95439.00
2023-03-26T00:43:20.385Z,95437.00
2023-03-26T00:44:20.374Z,95439.00
2023-03-26T00:45:20.396Z,95439.00
2023-03-26T00:46:20.436Z,95435.00
2023-03-26T00:47:20.347Z,95439.00
2023-03-26T00:48:21.669Z,95443.00
2023-03-26T00:49:19.366Z,95447.00
2023-03-26T00:50:20.341Z,95449.00
2023-03-26T00:51:20.331Z,95449.00
2023-03-26T00:52:20.331Z,95443.00
2023-03-26T00:53:20.302Z,95441.00
2023-03-26T00:54:20.294Z,95435.00
2023-03-26T00:55:20.296Z,95429.00
2023-03-26T00:56:20.290Z,95427.00
2023-03-26T00:57:32.667Z,95425.00
2023-03-26T00:58:20.286Z,95427.00
2023-03-26T00:59:20.289Z,95425.00
2023-03-26T01:00:20.271Z,95419.00
2023-03-26T01:01:19.276Z,95421.00
2023-03-26T01:02:20.287Z,95423.00
2023-03-26T01:03:27.488Z,95425.00
2023-03-26T01:04:20.393Z,95425.00
2023-03-26T01:05:20.340Z,95425.00
2023-03-26T01:06:19.211Z,95423.00
2023-03-26T01:07:20.200Z,95421.00
2023-03-26T01:08:20.193Z,95419.00
2023-03-26T01:09:20.174Z,95417.00
2023-03-26T01:10:20.184Z,95417.00
2023-03-26T01:11:19.180Z,95419.00
2023-03-26T01:12:19.178Z,95419.00
2023-03-26T01:13:20.160Z,95415.00
2023-03-26T01:14:20.160Z,95415.00
2023-03-26T01:15:20.154Z,95413.00
2023-03-26T01:16:20.236Z,95411.00
2023-03-26T01:17:19.122Z,95415.00
2023-03-26T01:18:20.135Z,95419.00
2023-03-26T01:19:20.118Z,95421.00
2023-03-26T01:20:19.099Z,95427.00
2023-03-26T01:21:19.119Z,95429.00
2023-03-26T01:22:20.144Z,95431.00
2023-03-26T01:23:20.088Z,95427.00
2023-03-26T01:24:20.078Z,95431.00
2023-03-26T01:25:20.073Z,95433.00
2023-03-26T01:26:20.060Z,95435.00
2023-03-26T01:27:20.059Z,95435.00
2023-03-26T01:28:20.050Z,95433.00
2023-03-26T01:29:19.037Z,95433.00
2023-03-26T01:30:20.026Z,95431.00
2023-03-26T01:31:20.043Z,95431.00
2023-03-26T01:32:20.028Z,95427.00
2023-03-26T01:33:20.086Z,95419.00
2023-03-26T01:34:18.999Z,95417.00
2023-03-26T01:35:19.140Z,95411.00
2023-03-26T01:36:18.984Z,95400.00
2023-03-26T01:37:20.019Z,95396.00
2023-03-26T01:38:19.978Z,95392.00
2023-03-26T01:39:19.975Z,95386.00
2023-03-26T01:40:19.999Z,95384.00
2023-03-26T01:41:18.966Z,95384.00
2023-03-26T01:42:19.949Z,95382.00
2023-03-26T01:43:19.940Z,95382.00
2023-03-26T01:44:19.957Z,95382.00
2023-03-26T01:45:19.975Z,95382.00
2023-03-26T01:46:19.963Z,95384.00
2023-03-26T01:47:19.922Z,95386.00
2023-03-26T01:48:19.928Z,95386.00
2023-03-26T01:49:19.903Z,95386.00
2023-03-26T01:50:18.906Z,95388.00
2023-03-26T01:51:19.896Z,95392.00
2023-03-26T01:52:19.909Z,95400.00
2023-03-26T01:53:18.910Z,95413.00
2023-03-26T01:54:18.888Z,95419.00
2023-03-26T01:55:19.877Z,95421.00
2023-03-26T01:56:19.872Z,95425.00
2023-03-26T01:57:19.856Z,95425.00
2023-03-26T01:58:19.873Z,95423.00
2023-03-26T01:59:19.849Z,95425.00
2023-03-26T02:00:19.842Z,95423.00
2023-03-26T02:01:19.876Z,95425.00
2023-03-26T02:02:19.938Z,95425.00
2023-03-26T02:03:20.010Z,95423.00
2023-03-26T02:04:18.811Z,95419.00
2023-03-26T02:05:18.804Z,95417.00
2023-03-26T02:06:19.818Z,95413.00
2023-03-26T02:07:19.784Z,95409.00
2023-03-26T02:08:19.802Z,95400.00
2023-03-26T02:09:19.810Z,95398.00
2023-03-26T02:10:18.787Z,95398.00
2023-03-26T02:11:20.139Z,95398.00
2023-03-26T02:12:19.782Z,95398.00
2023-03-26T02:13:19.743Z,95400.00
2023-03-26T02:14:19.742Z,95409.00
2023-03-26T02:15:19.753Z,95398.00
2023-03-26T02:16:18.801Z,95398.00
2023-03-26T02:17:18.722Z,95400.00
2023-03-26T02:18:19.712Z,95398.00
2023-03-26T02:19:19.701Z,95392.00
2023-03-26T02:20:19.716Z,95392.00
2023-03-26T02:21:19.706Z,95390.00
2023-03-26T02:22:19.696Z,95386.00
2023-03-26T02:23:19.721Z,95384.00
2023-03-26T02:24:18.756Z,95382.00
2023-03-26T02:25:18.809Z,95380.00
2023-03-26T02:26:19.849Z,95380.00
2023-03-26T02:27:19.843Z,95378.00
2023-03-26T02:28:18.864Z,95382.00
2023-03-26T02:29:18.894Z,95382.00
2023-03-26T02:30:19.938Z,95384.00
2023-03-26T02:31:19.976Z,95386.00
2023-03-26T02:32:19.978Z,95388.00
2023-03-26T02:33:19.021Z,95390.00
2023-03-26T02:34:19.064Z,95392.00
2023-03-26T02:35:20.210Z,95394.00
2023-03-26T02:36:19.212Z,95396.00
2023-03-26T02:37:20.124Z,95400.00
2023-03-26T02:38:19.149Z,95411.00
2023-03-26T02:39:19.193Z,95419.00
2023-03-26T02:40:19.212Z,95425.00
2023-03-26T02:41:20.990Z,95427.00
2023-03-26T02:42:20.267Z,95429.00
2023-03-26T02:43:20.306Z,95427.00
2023-03-26T02:44:20.342Z,95423.00
2023-03-26T02:45:20.357Z,95413.00
2023-03-26T02:46:20.413Z,95411.00
2023-03-26T02:47:20.428Z,95400.00
2023-03-26T02:48:19.441Z,95394.00
2023-03-26T02:49:19.459Z,95390.00
2023-03-26T02:50:20.487Z,95386.00
2023-03-26T02:51:20.546Z,95382.00
2023-03-26T02:52:20.560Z,95376.00
2023-03-26T02:53:20.577Z,95376.00
2023-03-26T02:54:20.602Z,95376.00
2023-03-26T02:55:20.653Z,95376.00
2023-03-26T02:56:20.676Z,95374.00
2023-03-26T02:57:20.740Z,95372.00
2023-03-26T02:58:20.744Z,95376.00
2023-03-26T02:59:20.770Z,95378.00
2023-03-26T03:00:20.785Z,95380.00
2023-03-26T03:01:20.864Z,95378.00
2023-03-26T03:02:20.894Z,95380.00
2023-03-26T03:03:20.903Z,95380.00
2023-03-26T03:04:20.898Z,95378.00
2023-03-26T03:05:20.940Z,95382.00
2023-03-26T03:06:20.989Z,95384.00
2023-03-26T03:07:21.018Z,95384.00
2023-03-26T03:08:21.060Z,95386.00
2023-03-26T03:09:21.106Z,95384.00
2023-03-26T03:10:20.141Z,95382.00
2023-03-26T03:11:21.180Z,95380.00
2023-03-26T03:12:21.218Z,95372.00
2023-03-26T03:13:21.346Z,95372.00
2023-03-26T03:14:21.289Z,95370.00
2023-03-26T03:15:21.331Z,95370.00
2023-03-26T03:16:21.403Z,95370.00
2023-03-26T03:17:21.430Z,95370.00
2023-03-26T03:18:21.469Z,95364.00
2023-03-26T03:19:21.504Z,95358.00
2023-03-26T03:20:21.530Z,95353.00
2023-03-26T03:21:21.582Z,95353.00
2023-03-26T03:22:21.635Z,95345.00
2023-03-26T03:23:21.660Z,95341.00
2023-03-26T03:24:21.688Z,95341.00
2023-03-26T03:25:22.471Z,95343.00
2023-03-26T03:26:21.827Z,95335.00
2023-03-26T03:27:20.812Z,95331.00
2023-03-26T03:28:21.847Z,95327.00
2023-03-26T03:29:21.901Z,95327.00
2023-03-26T03:30:21.923Z,95329.00
2023-03-26T03:31:21.976Z,95329.00
2023-03-26T03:32:22.030Z,95329.00
2023-03-26T03:33:22.054Z,95325.00
2023-03-26T03:34:22.088Z,95323.00
2023-03-26T03:35:22.140Z,95319.00
2023-03-26T03:36:22.162Z,95319.00
2023-03-26T03:37:22.230Z,95319.00
2023-03-26T03:38:22.253Z,95319.00
2023-03-26T03:39:22.288Z,95319.00
2023-03-26T03:40:22.362Z,95321.00
2023-03-26T03:41:22.374Z,95319.00
2023-03-26T03:42:21.417Z,95317.00
2023-03-26T03:43:22.449Z,95319.00
2023-03-26T03:44:22.509Z,95319.00
2023-03-26T03:45:22.564Z,95319.00
2023-03-26T03:46:22.607Z,95319.00
2023-03-26T03:47:22.685Z,95319.00
2023-03-26T03:48:22.644Z,95317.00
2023-03-26T03:49:21.700Z,95319.00
2023-03-26T03:50:22.729Z,95319.00
2023-03-26T03:51:22.784Z,95315.00
2023-03-26T03:52:22.855Z,95315.00
2023-03-26T03:53:22.865Z,95311.00
2023-03-26T03:54:21.909Z,95309.00
2023-03-26T03:55:22.961Z,95311.00
2023-03-26T03:56:23.020Z,95309.00
2023-03-26T03:57:23.082Z,95311.00
2023-03-26T03:58:23.105Z,95311.00
2023-03-26T03:59:22.133Z,95311.00
2023-03-26T04:00:23.190Z,95309.00
2023-03-26T04:01:23.248Z,95309.00
2023-03-26T04:02:23.341Z,95311.00
2023-03-26T04:03:33.655Z,95309.00
2023-03-26T04:04:23.358Z,95308.00
2023-03-26T04:05:23.339Z,95308.00
2023-03-26T04:06:23.315Z,95306.00
2023-03-26T04:07:23.302Z,95304.00
2023-03-26T04:08:23.495Z,95302.00
2023-03-26T04:09:23.290Z,95302.00
2023-03-26T04:10:23.266Z,95298.00
2023-03-26T04:11:23.269Z,95298.00
2023-03-26T04:12:23.262Z,95296.00
2023-03-26T04:13:23.240Z,95296.00
2023-03-26T04:14:23.243Z,95296.00
2023-03-26T04:15:23.235Z,95298.00
2023-03-26T04:16:23.278Z,95296.00
2023-03-26T04:17:22.235Z,95296.00
2023-03-26T04:18:23.215Z,95294.00
2023-03-26T04:19:23.210Z,95292.00
2023-03-26T04:20:22.212Z,95290.00
2023-03-26T04:21:23.190Z,95286.00
2023-03-26T04:22:23.190Z,95284.00
2023-03-26T04:23:23.198Z,95280.00
2023-03-26T04:24:23.186Z,95278.00
2023-03-26T04:25:23.173Z,95276.00
2023-03-26T04:26:23.160Z,95276.00
2023-03-26T04:27:23.160Z,95276.00
2023-03-26T04:28:22.146Z,95272.00
2023-03-26T04:29:23.144Z,95268.00
2023-03-26T04:30:23.136Z,95270.00
2023-03-26T04:31:23.156Z,95270.00
2023-03-26T04:32:22.131Z,95272.00
2023-03-26T04:33:22.130Z,95274.00
2023-03-26T04:34:23.122Z,95276.00
2023-03-26T04:35:23.160Z,95274.00
2023-03-26T04:36:23.167Z,95276.00
2023-03-26T04:37:23.210Z,95278.00
2023-03-26T04:38:23.251Z,95280.00
2023-03-26T04:39:23.279Z,95280.00
2023-03-26T04:40:23.320Z,95280.00
2023-03-26T04:41:23.350Z,95280.00
2023-03-26T04:42:22.392Z,95280.00
2023-03-26T04:43:23.426Z,95282.00
2023-03-26T04:44:23.469Z,95280.00
2023-03-26T04:45:23.512Z,95284.00
2023-03-26T04:46:23.600Z,95284.00
2023-03-26T04:47:23.678Z,95286.00
2023-03-26T04:48:23.626Z,95282.00
2023-03-26T04:49:22.680Z,95284.00
2023-03-26T04:50:23.698Z,95284.00
2023-03-26T04:51:23.751Z,95286.00
2023-03-26T04:52:23.764Z,95284.00
2023-03-26T04:53:23.822Z,95282.00
2023-03-26T04:54:23.842Z,95278.00
2023-03-26T04:55:23.872Z,95278.00
2023-03-26T04:56:23.902Z,95272.00
2023-03-26T04:57:23.936Z,95272.00
2023-03-26T04:58:23.991Z,95272.00
2023-03-26T04:59:24.024Z,95272.00
2023-03-26T05:00:24.069Z,95270.00
2023-03-26T05:01:24.139Z,95270.00
2023-03-26T05:02:24.159Z,95268.00
2023-03-26T05:03:24.191Z,95266.00
2023-03-26T05:04:24.299Z,95268.00
2023-03-26T05:05:24.316Z,95266.00
2023-03-26T05:06:24.351Z,95268.00
2023-03-26T05:07:24.373Z,95266.00
2023-03-26T05:08:24.446Z,95268.00
2023-03-26T05:09:24.486Z,95268.00
2023-03-26T05:10:24.529Z,95268.00
2023-03-26T05:11:24.582Z,95268.00
2023-03-26T05:12:24.629Z,95266.00
2023-03-26T05:13:23.677Z,95266.00
2023-03-26T05:14:23.709Z,95268.00
2023-03-26T05:15:24.797Z,95268.00
2023-03-26T05:16:24.861Z,95268.00
2023-03-26T05:17:23.883Z,95268.00
2023-03-26T05:18:24.936Z,95268.00
2023-03-26T05:19:23.961Z,95266.00
2023-03-26T05:20:25.003Z,95264.00
2023-03-26T05:21:24.093Z,95266.00
2023-03-26T05:22:25.103Z,95262.00
2023-03-26T05:23:24.153Z,95261.00
2023-03-26T05:24:24.215Z,95262.00
2023-03-26T05:25:24.263Z,95262.00
2023-03-26T05:26:25.346Z,95264.00
2023-03-26T05:27:24.356Z,95262.00
2023-03-26T05:28:25.441Z,95262.00
2023-03-26T05:29:24.455Z,95261.00
2023-03-26T05:30:24.522Z,95257.00
2023-03-26T05:31:25.580Z,95262.00
2023-03-26T05:32:26.533Z,95261.00
2023-03-26T05:33:25.726Z,95261.00
2023-03-26T05:34:25.691Z,95259.00
2023-03-26T05:35:25.742Z,95255.00
2023-03-26T05:36:25.801Z,95255.00
2023-03-26T05:37:24.869Z,95253.00
2023-03-26T05:38:25.945Z,95253.00
2023-03-26T05:39:25.956Z,95251.00
2023-03-26T05:40:26.000Z,95249.00
2023-03-26T05:41:26.034Z,95243.00
2023-03-26T05:42:26.078Z,95243.00
2023-03-26T05:43:26.322Z,95241.00
2023-03-26T05:44:26.179Z,95237.00
2023-03-26T05:45:26.235Z,95235.00
2023-03-26T05:46:26.293Z,95235.00
2023-03-26T05:47:26.319Z,95237.00
2023-03-26T05:48:26.387Z,95233.00
2023-03-26T05:49:26.471Z,95231.00
2023-03-26T05:50:26.468Z,95227.00
2023-03-26T05:51:26.496Z,95227.00
2023-03-26T05:52:26.546Z,95225.00
2023-03-26T05:53:26.743Z,95221.00
2023-03-26T05:54:26.692Z,95219.00
2023-03-26T05:55:26.701Z,95219.00
2023-03-26T05:56:25.737Z,95217.00
2023-03-26T05:57:26.792Z,95217.00
2023-03-26T05:58:26.821Z,95217.00
2023-03-26T05:59:26.850Z,95217.00
2023-03-26T06:00:25.914Z,95217.00
2023-03-26T06:01:26.974Z,95219.00
2023-03-26T06:02:27.024Z,95219.00
2023-03-26T06:03:27.205Z,95217.00
2023-03-26T06:04:26.193Z,95217.00
2023-03-26T06:05:26.149Z,95217.00
2023-03-26T06:06:26.219Z,95217.00
2023-03-26T06:07:27.258Z,95219.00
2023-03-26T06:08:27.324Z,95215.00
2023-03-26T06:09:27.428Z,95215.00
2023-03-26T06:10:27.480Z,95214.00
2023-03-26T06:11:27.473Z,95214.00
2023-03-26T06:12:26.536Z,95212.00
2023-03-26T06:13:27.581Z,95210.00
2023-03-26T06:14:27.634Z,95206.00
2023-03-26T06:15:27.679Z,95204.00
2023-03-26T06:16:28.364Z,95198.00
2023-03-26T06:17:27.809Z,95196.00
2023-03-26T06:18:27.884Z,95194.00
2023-03-26T06:19:27.872Z,95190.00
2023-03-26T06:20:27.913Z,95188.00
2023-03-26T06:21:27.965Z,95186.00
2023-03-26T06:22:28.036Z,95186.00
2023-03-26T06:23:28.066Z,95184.00
2023-03-26T06:24:28.093Z,95182.00
2023-03-26T06:25:28.182Z,95180.00
2023-03-26T06:26:28.184Z,95182.00
2023-03-26T06:27:28.232Z,95178.00
2023-03-26T06:28:28.301Z,95176.00
2023-03-26T06:29:28.336Z,95174.00
2023-03-26T06:30:28.398Z,95174.00
2023-03-26T06:31:28.533Z,95174.00
2023-03-26T06:32:28.516Z,95176.00
2023-03-26T06:33:28.556Z,95172.00
2023-03-26T06:34:28.633Z,95170.00
2023-03-26T06:35:28.679Z,95167.00
2023-03-26T06:36:28.767Z,95167.00
2023-03-26T06:37:28.778Z,95163.00
2023-03-26T06:38:28.863Z,95163.00
2023-03-26T06:39:27.914Z,95161.00
2023-03-26T06:40:27.970Z,95157.00
2023-03-26T06:41:29.113Z,95155.00
2023-03-26T06:43:07.106Z,95155.00
2023-03-26T06:43:29.089Z,95153.00
2023-03-26T06:44:29.086Z,95155.00
2023-03-26T06:45:29.073Z,95153.00
2023-03-26T06:46:29.180Z,95145.00
2023-03-26T06:47:28.085Z,95141.00
2023-03-26T06:48:29.059Z,95137.00
2023-03-26T06:49:30.037Z,95137.00
2023-03-26T06:50:29.045Z,95135.00
2023-03-26T06:51:29.058Z,95135.00
2023-03-26T06:52:29.044Z,95133.00
2023-03-26T06:53:29.072Z,95133.00
2023-03-26T06:54:29.034Z,95131.00
2023-03-26T06:55:28.013Z,95129.00
2023-03-26T06:56:28.998Z,95131.00
2023-03-26T06:57:29.017Z,95131.00
2023-03-26T06:58:29.028Z,95127.00
2023-03-26T06:59:29.081Z,95127.00
2023-03-26T07:00:29.128Z,95121.00
2023-03-26T07:01:29.195Z,95119.00
2023-03-26T07:02:29.272Z,95117.00
2023-03-26T07:03:29.292Z,95114.00
2023-03-26T07:04:29.410Z,95112.00
2023-03-26T07:05:29.410Z,95110.00
2023-03-26T07:06:28.465Z,95108.00
2023-03-26T07:07:29.522Z,95110.00
2023-03-26T07:08:29.579Z,95110.00
2023-03-26T07:09:29.634Z,95106.00
2023-03-26T07:10:29.689Z,95106.00
2023-03-26T07:11:28.732Z,95102.00
2023-03-26T07:12:29.807Z,95098.00
2023-03-26T07:13:29.864Z,95092.00
2023-03-26T07:14:29.897Z,95090.00
2023-03-26T07:15:28.961Z,95086.00
2023-03-26T07:17:29.065Z,95088.00
2023-03-26T07:18:30.112Z,95086.00
2023-03-26T07:19:29.161Z,95084.00
2023-03-26T07:20:30.213Z,95074.00
2023-03-26T07:21:30.286Z,95065.00
2023-03-26T07:22:30.322Z,95063.00
2023-03-26T07:23:30.365Z,95059.00
2023-03-26T07:24:30.406Z,95059.00
2023-03-26T07:25:29.468Z,95059.00
2023-03-26T07:26:30.520Z,95051.00
2023-03-26T07:27:30.552Z,95045.00
2023-03-26T07:28:30.629Z,95039.00
2023-03-26T07:29:30.694Z,95037.00
2023-03-26T07:30:30.715Z,95035.00
2023-03-26T07:31:30.822Z,95039.00
2023-03-26T07:32:30.831Z,95037.00
2023-03-26T07:33:30.880Z,95035.00
2023-03-26T07:34:30.934Z,95033.00
2023-03-26T07:35:31.028Z,95027.00
2023-03-26T07:36:31.046Z,95027.00
2023-03-26T07:37:31.103Z,95023.00
2023-03-26T07:38:31.185Z,95023.00
2023-03-26T07:39:31.231Z,95021.00
2023-03-26T07:40:31.254Z,95023.00
2023-03-26T07:41:31.339Z,95019.00
2023-03-26T07:42:31.370Z,95015.00
2023-03-26T07:43:30.426Z,95010.00
2023-03-26T07:44:30.478Z,95010.00
2023-03-26T07:45:31.552Z,95008.00
2023-03-26T07:46:31.565Z,95004.00
2023-03-26T07:47:30.634Z,95002.00
2023-03-26T07:48:31.674Z,94998.00
2023-03-26T07:49:31.720Z,94998.00
2023-03-26T07:50:31.789Z,94996.00
2023-03-26T07:51:31.823Z,94992.00
2023-03-26T07:52:31.890Z,94988.00
2023-03-26T07:53:31.947Z,94980.00
2023-03-26T07:54:31.989Z,94976.00
2023-03-26T07:55:32.037Z,94974.00
2023-03-26T07:56:32.330Z,94978.00
2023-03-26T07:57:32.187Z,94978.00
2023-03-26T07:58:31.188Z,94978.00
2023-03-26T07:59:32.263Z,94974.00
2023-03-26T08:00:32.281Z,94974.00
2023-03-26T08:01:32.409Z,94974.00
2023-03-26T08:02:32.404Z,94970.00
2023-03-26T08:03:32.583Z,94968.00
2023-03-26T08:04:32.518Z,94970.00
2023-03-26T08:05:32.517Z,94970.00
2023-03-26T08:06:32.574Z,94968.00
2023-03-26T08:07:32.633Z,94966.00
2023-03-26T08:08:32.673Z,94966.00
2023-03-26T08:09:32.738Z,94965.00
2023-03-26T08:10:32.775Z,94963.00
2023-03-26T08:11:32.900Z,94957.00
2023-03-26T08:12:32.880Z,94955.00
2023-03-26T08:13:32.937Z,94951.00
2023-03-26T08:14:32.995Z,94953.00
2023-03-26T08:15:33.176Z,94947.00
2023-03-26T08:16:33.081Z,94945.00
2023-03-26T08:17:33.183Z,94941.00
2023-03-26T08:18:33.166Z,94941.00
2023-03-26T08:19:33.232Z,94937.00
2023-03-26T08:20:33.258Z,94935.00
2023-03-26T08:21:33.296Z,94927.00
2023-03-26T08:22:33.341Z,94927.00
2023-03-26T08:23:33.426Z,94925.00
2023-03-26T08:24:33.485Z,94923.00
2023-03-26T08:25:32.473Z,94919.00
2023-03-26T08:26:33.544Z,94916.00
2023-03-26T08:27:33.576Z,94910.00
2023-03-26T08:28:32.612Z,94908.00
2023-03-26T08:29:32.659Z,94900.00
2023-03-26T08:30:33.701Z,94888.00
2023-03-26T08:31:33.776Z,94884.00
2023-03-26T08:32:33.786Z,94878.00
2023-03-26T08:33:34.944Z,94878.00
2023-03-26T08:34:33.808Z,94874.00
2023-03-26T08:35:33.843Z,94873.00
2023-03-26T08:36:32.788Z,94871.00
2023-03-26T08:37:32.793Z,94871.00
2023-03-26T08:38:33.769Z,94869.00
2023-03-26T08:39:33.759Z,94865.00
2023-03-26T08:40:32.766Z,94863.00
2023-03-26T08:41:33.752Z,94863.00
2023-03-26T08:42:33.734Z,94861.00
2023-03-26T08:43:33.733Z,94867.00
2023-03-26T08:44:33.728Z,94865.00
2023-03-26T08:45:33.716Z,94863.00
2023-03-26T08:46:33.753Z,94859.00
2023-03-26T08:47:33.782Z,94859.00
2023-03-26T08:48:33.709Z,94851.00
2023-03-26T08:49:33.720Z,94849.00
2023-03-26T08:50:33.690Z,94843.00
2023-03-26T08:51:33.673Z,94843.00
2023-03-26T08:52:33.743Z,94835.00
2023-03-26T08:53:33.668Z,94831.00
2023-03-26T08:54:33.661Z,94829.00
2023-03-26T08:55:33.673Z,94827.00
2023-03-26T08:56:33.700Z,94827.00
2023-03-26T08:57:33.778Z,94827.00
2023-03-26T08:58:33.666Z,94827.00
2023-03-26T08:59:33.636Z,94827.00
2023-03-26T09:00:32.650Z,94821.00
2023-03-26T09:01:33.665Z,94819.00
2023-03-26T09:02:32.637Z,94819.00
2023-03-26T09:03:33.653Z,94819.00
2023-03-26T09:04:32.614Z,94818.00
2023-03-26T09:05:33.650Z,94821.00
2023-03-26T09:06:33.587Z,94823.00
2023-03-26T09:07:33.590Z,94823.00
2023-03-26T09:08:32.587Z,94827.00
2023-03-26T09:09:33.578Z,94831.00
2023-03-26T09:10:33.569Z,94831.00
2023-03-26T09:11:33.563Z,94833.00
2023-03-26T09:12:33.568Z,94831.00
2023-03-26T09:13:33.540Z,94833.00
2023-03-26T09:14:32.547Z,94827.00
2023-03-26T09:15:33.554Z,94821.00
2023-03-26T09:16:33.580Z,94812.00
2023-03-26T09:17:32.546Z,94808.00
2023-03-26T09:18:33.519Z,94802.00
2023-03-26T09:19:33.508Z,94802.00
2023-03-26T09:20:33.520Z,94808.00
2023-03-26T09:21:33.554Z,94814.00
2023-03-26T09:22:33.501Z,94821.00
2023-03-26T09:23:33.504Z,94816.00
2023-03-26T09:24:33.487Z,94814.00
2023-03-26T09:25:32.510Z,94812.00
2023-03-26T09:26:33.486Z,94808.00
2023-03-26T09:27:33.463Z,94808.00
2023-03-26T09:28:32.465Z,94802.00
2023-03-26T09:29:33.459Z,94800.00
2023-03-26T09:30:32.470Z,94802.00
2023-03-26T09:31:33.537Z,94800.00
2023-03-26T09:32:33.500Z,94804.00
2023-03-26T09:33:32.506Z,94814.00
2023-03-26T09:34:33.499Z,94812.00
2023-03-26T09:35:33.568Z,94814.00
2023-03-26T09:36:32.533Z,94812.00
2023-03-26T09:37:33.704Z,94812.00
2023-03-26T09:38:33.573Z,94812.00
2023-03-26T09:39:33.576Z,94808.00
2023-03-26T09:40:33.582Z,94802.00
2023-03-26T09:41:33.589Z,94794.00
2023-03-26T09:42:33.597Z,94782.00
2023-03-26T09:43:33.596Z,94776.00
2023-03-26T09:44:32.608Z,94778.00
2023-03-26T09:45:33.643Z,94776.00
2023-03-26T09:46:32.629Z,94772.00
2023-03-26T09:47:33.645Z,94776.00
2023-03-26T09:48:33.619Z,94776.00
2023-03-26T09:49:32.635Z,94778.00
2023-03-26T09:50:32.649Z,94784.00
2023-03-26T09:51:33.651Z,94776.00
2023-03-26T09:52:33.657Z,94776.00
2023-03-26T09:53:33.748Z,94778.00
2023-03-26T09:54:32.703Z,94776.00
2023-03-26T09:55:33.729Z,94769.00
2023-03-26T09:56:33.755Z,94771.00
2023-03-26T09:57:32.777Z,94772.00
2023-03-26T09:58:33.770Z,94776.00
2023-03-26T09:59:33.777Z,94778.00
2023-03-26T10:00:33.791Z,94776.00
2023-03-26T10:01:33.841Z,94774.00
2023-03-26T10:02:46.655Z,94772.00
2023-03-26T10:03:33.868Z,94771.00
2023-03-26T10:04:33.829Z,94767.00
2023-03-26T10:05:33.820Z,94771.00
2023-03-26T10:06:32.809Z,94769.00
2023-03-26T10:07:33.801Z,94765.00
2023-03-26T10:08:33.800Z,94769.00
2023-03-26T10:09:33.820Z,94771.00
2023-03-26T10:10:33.793Z,94774.00
2023-03-26T10:11:33.803Z,94772.00
2023-03-26T10:12:33.779Z,94772.00
2023-03-26T10:13:33.782Z,94767.00
2023-03-26T10:14:33.781Z,94765.00
2023-03-26T10:15:33.762Z,94763.00
2023-03-26T10:16:33.819Z,94763.00
2023-03-26T10:17:33.835Z,94767.00
2023-03-26T10:18:33.734Z,94769.00
2023-03-26T10:19:32.729Z,94774.00
2023-03-26T10:20:32.730Z,94782.00
2023-03-26T10:21:33.733Z,94790.00
2023-03-26T10:22:33.720Z,94794.00
2023-03-26T10:23:33.709Z,94796.00
2023-03-26T10:24:33.698Z,94796.00
2023-03-26T10:25:33.744Z,94794.00
2023-03-26T10:26:33.688Z,94794.00
2023-03-26T10:27:33.684Z,94792.00
2023-03-26T10:28:33.669Z,94794.00
2023-03-26T10:29:33.656Z,94792.00
2023-03-26T10:30:33.693Z,94796.00
2023-03-26T10:31:33.679Z,94792.00
2023-03-26T10:32:33.675Z,94788.00
2023-03-26T10:33:33.633Z,94784.00
2023-03-26T10:34:32.631Z,94780.00
2023-03-26T10:35:32.695Z,94780.00
2023-03-26T10:36:33.638Z,94788.00
2023-03-26T10:37:32.612Z,94794.00
2023-03-26T10:38:32.592Z,94798.00
2023-03-26T10:39:36.511Z,94792.00
2023-03-26T10:40:33.592Z,94788.00
2023-03-26T10:41:33.615Z,94782.00
2023-03-26T10:42:33.569Z,94776.00
2023-03-26T10:43:33.578Z,94776.00
2023-03-26T10:44:33.556Z,94780.00
2023-03-26T10:45:32.566Z,94778.00
2023-03-26T10:46:33.601Z,94776.00
2023-03-26T10:47:32.591Z,94771.00
2023-03-26T10:48:32.525Z,94769.00
2023-03-26T10:49:32.517Z,94769.00
2023-03-26T10:50:32.521Z,94772.00
2023-03-26T10:51:32.509Z,94774.00
2023-03-26T10:52:33.524Z,94772.00
2023-03-26T10:53:32.511Z,94769.00
2023-03-26T10:54:33.505Z,94767.00
2023-03-26T10:55:33.480Z,94769.00
2023-03-26T10:56:33.507Z,94769.00
2023-03-26T10:57:32.560Z,94774.00
2023-03-26T10:58:49.066Z,94776.00
2023-03-26T10:59:33.467Z,94776.00
2023-03-26T11:00:33.465Z,94771.00
2023-03-26T11:01:33.558Z,94759.00
2023-03-26T11:02:32.533Z,94753.00
2023-03-26T11:03:33.431Z,94753.00
2023-03-26T11:04:32.439Z,94755.00
2023-03-26T11:05:33.417Z,94755.00
2023-03-26T11:06:33.413Z,94759.00
2023-03-26T11:07:33.426Z,94761.00
2023-03-26T11:08:33.426Z,94757.00
2023-03-26T11:09:33.389Z,94753.00
2023-03-26T11:10:33.396Z,94747.00
2023-03-26T11:11:32.382Z,94743.00
2023-03-26T11:12:33.390Z,94741.00
2023-03-26T11:13:33.409Z,94745.00
2023-03-26T11:14:35.240Z,94741.00
2023-03-26T11:15:33.406Z,94739.00
2023-03-26T11:16:33.346Z,94741.00
2023-03-26T11:17:40.181Z,94743.00
2023-03-26T11:18:33.399Z,94749.00
2023-03-26T11:19:33.362Z,94747.00
2023-03-26T11:20:33.332Z,94751.00
2023-03-26T11:21:33.310Z,94751.00
2023-03-26T11:22:33.314Z,94749.00
2023-03-26T11:23:33.310Z,94747.00
2023-03-26T11:24:32.306Z,94745.00
2023-03-26T11:25:32.304Z,94743.00
2023-03-26T11:26:33.366Z,94747.00
2023-03-26T11:27:32.267Z,94753.00
2023-03-26T11:28:33.267Z,94761.00
2023-03-26T11:29:33.710Z,94765.00
2023-03-26T11:30:33.260Z,94767.00
2023-03-26T11:31:33.462Z,94765.00
2023-03-26T11:32:33.267Z,94759.00
2023-03-26T11:33:33.232Z,94753.00
2023-03-26T11:34:33.216Z,94749.00
2023-03-26T11:35:41.097Z,94749.00
2023-03-26T11:36:33.263Z,94755.00
2023-03-26T11:37:33.280Z,94755.00
2023-03-26T11:38:33.215Z,94751.00
2023-03-26T11:39:33.185Z,94749.00
2023-03-26T11:40:33.206Z,94747.00
2023-03-26T11:41:33.181Z,94745.00
2023-03-26T11:42:33.166Z,94745.00
2023-03-26T11:43:33.201Z,94747.00
2023-03-26T11:44:33.150Z,94749.00
2023-03-26T11:45:32.182Z,94745.00